Airfield :
LOGIN :

Register | Disclaimer

   EN    FR    IT 

 










Legend :    VFR   Marginal VFR   IFR   Intensive IFR   Very Intensive IFR
Visi :
Ceiling :
>= 8 km
>= 3000ft
5 to 8 km
1000 to 3000 ft
1500m to 5 km
500 to 1000 ft
800 to 1500m
200 to 500 ft
< 800m
< 200 ft
Symbols :   Thunderstorms  Fog  Heavy snow  Heavy precipitations  Wind > 20 kt
SIGMETs :     Misc.  Thunderstorms  Icing  Turbulence  Mountain Waves  Volcanic Ashes






- Airport Elevation : 288 ft
- IATA code : BZZ


EGVN - RAF Brize Norton

CURRENT METAR :
  • 012250Z 09007KT 9999 -RA BKN044 BKN060 10/08 Q0990 NOSIG RMK BLU BLU

EXPIRED METARs :
  • 012220Z 09008KT 9999 -RA BKN042 BKN060 09/08 Q0991 NOSIG
  • 012150Z 10007KT 9999 -RA BKN055 09/08 Q0991 NOSIG
  • 012120Z 12008KT 9999 -RA BKN040 BKN060 10/08 Q0992 NOSIG RMK BLU BLU
  • 012050Z 11006KT 9999 -RA BKN045 10/08 Q0992 NOSIG RMK BLU BLU

TAF COR TAF EGVN
Valid from the 01 at 21:00 until the 02 at 21:00 UTC


011955Z 0121/0221 10005KT 9999 FEW040
PROB40
TEMPO 0121/0204 5000 RA SCT020
PROB30
TEMPO 0121/0123 3000 +RA
BECMG 0201/0204 08015KT
BECMG 0204/0207 08018G28KT BKN010
TEMPO 0204/0214 4000 RADZ
BECMG 0214/0217 05015KT
PROB30 0214/0219 SCT025



MET'MAP, your aeronautical weather chart ! - Copyright ORBIFLY December 2007 - Disclaimer

ORBIFLY MET'MAP TEAM :

Programming & Development : Alexandra Zaïnal
Concept & original design : Baudouin d'Aumeries
Assistance for programming : Marc-Olivier Méhu
Technical & hardware support : Manuel Goepfert

Contact : metmap@orbifly.com




SOURCES & CREDITS :

   NOAA